createdAt,value
2023-08-08T00:08:13.238Z,86.2
2023-08-08T00:18:13.495Z,85.6
2023-08-08T00:28:13.484Z,85.6
2023-08-08T00:38:13.158Z,85.8
2023-08-08T00:48:13.242Z,86.2
2023-08-08T00:58:13.135Z,86.4
2023-08-08T01:08:13.108Z,86.4
2023-08-08T01:18:12.963Z,86.8
2023-08-08T01:28:13.300Z,87
2023-08-08T01:38:13.292Z,87.2
2023-08-08T01:48:12.997Z,87.2
2023-08-08T01:58:13.091Z,86.8
2023-08-08T02:08:13.240Z,87
2023-08-08T02:18:12.792Z,87
2023-08-08T02:28:13.060Z,86.6
2023-08-08T02:38:12.797Z,86.6
2023-08-08T02:48:12.648Z,86.8
2023-08-08T02:58:12.821Z,86.6
2023-08-08T03:08:12.581Z,86.6
2023-08-08T03:18:12.650Z,86.8
2023-08-08T03:28:12.493Z,86.8
2023-08-08T03:38:12.814Z,87
2023-08-08T03:48:12.630Z,87.2
2023-08-08T03:58:12.715Z,87.8
2023-08-08T04:08:12.504Z,87.6
2023-08-08T04:18:12.328Z,87.2
2023-08-08T04:28:12.279Z,87.2
2023-08-08T04:38:12.545Z,87.6
2023-08-08T04:48:12.253Z,87.6
2023-08-08T04:58:12.243Z,87.6
2023-08-08T05:08:12.145Z,87.6
2023-08-08T05:18:12.159Z,87.6
2023-08-08T05:28:12.291Z,87.6
2023-08-08T05:38:12.224Z,87.8
2023-08-08T05:48:12.130Z,87.8
2023-08-08T05:58:12.240Z,88
2023-08-08T06:08:11.913Z,88.2
2023-08-08T06:18:12.133Z,88.4
2023-08-08T06:28:11.926Z,88.2
2023-08-08T06:38:12.080Z,88.2
2023-08-08T06:48:11.906Z,87.8
2023-08-08T06:58:12.036Z,87.2
2023-08-08T07:08:11.972Z,86
2023-08-08T07:18:11.822Z,85.4
2023-08-08T07:28:11.755Z,85.6
2023-08-08T07:38:11.815Z,85.4
2023-08-08T07:48:11.792Z,84.8
2023-08-08T07:58:11.804Z,84
2023-08-08T08:08:11.822Z,83.6
2023-08-08T08:18:11.564Z,83
2023-08-08T08:28:11.519Z,82.4
2023-08-08T08:38:11.364Z,82
2023-08-08T08:48:11.401Z,82.2
2023-08-08T08:58:11.412Z,86.4
2023-08-08T09:08:11.517Z,88.2
2023-08-08T09:18:11.202Z,87.8
2023-08-08T09:28:11.426Z,88.8
2023-08-08T09:38:11.509Z,91.8
2023-08-08T09:48:11.334Z,92
2023-08-08T09:58:11.358Z,91.8
2023-08-08T10:08:11.282Z,92.6
2023-08-08T10:18:11.270Z,92.6
2023-08-08T10:28:11.141Z,92
2023-08-08T10:38:11.307Z,90.8
2023-08-08T10:48:11.182Z,86.4
2023-08-08T10:58:10.950Z,82.6
2023-08-08T11:08:11.106Z,82.6
2023-08-08T11:18:11.044Z,82.4
2023-08-08T11:28:11.014Z,81
2023-08-08T11:38:11.037Z,79.6
2023-08-08T11:48:11.010Z,78.8
2023-08-08T11:58:10.917Z,77.4
2023-08-08T12:08:10.718Z,77.2
2023-08-08T12:18:10.853Z,76.6
2023-08-08T12:28:10.663Z,75.2
2023-08-08T12:38:10.466Z,75.4
2023-08-08T12:48:10.539Z,73.4
2023-08-08T12:58:10.708Z,78.8
2023-08-08T13:08:10.674Z,85.4
2023-08-08T13:18:10.643Z,88.2
2023-08-08T13:28:10.495Z,89
2023-08-08T13:38:10.469Z,89.4
2023-08-08T13:48:10.467Z,89.2
2023-08-08T13:58:10.477Z,85.8
2023-08-08T14:08:10.500Z,85.4
2023-08-08T14:18:10.422Z,77.2
2023-08-08T14:28:10.379Z,73.4
2023-08-08T14:38:10.288Z,72.4
2023-08-08T14:48:10.193Z,69.8
2023-08-08T14:58:10.236Z,68
2023-08-08T15:08:10.059Z,68.8
2023-08-08T15:18:10.175Z,69.2
2023-08-08T15:28:09.900Z,68.6
2023-08-08T15:38:09.778Z,67.2
2023-08-08T15:48:09.874Z,66.6
2023-08-08T15:58:09.853Z,67
2023-08-08T16:08:09.899Z,67.4
2023-08-08T16:18:09.821Z,66.4
2023-08-08T16:28:09.750Z,67
2023-08-08T16:38:09.792Z,66
2023-08-08T16:48:09.764Z,66.4
2023-08-08T16:58:09.748Z,66.8
2023-08-08T17:08:09.688Z,69.4
2023-08-08T17:18:09.393Z,71.2
2023-08-08T17:28:09.582Z,71.4
2023-08-08T17:38:09.729Z,71.8
2023-08-08T17:48:09.442Z,71.8
2023-08-08T17:58:09.399Z,73.8
2023-08-08T18:08:09.350Z,74.2
2023-08-08T18:18:09.323Z,72.8
2023-08-08T18:28:09.272Z,72.2
2023-08-08T18:38:09.177Z,73.2
2023-08-08T18:48:09.111Z,74.6
2023-08-08T18:58:09.219Z,74.4
2023-08-08T19:08:09.135Z,74.2
2023-08-08T19:18:09.251Z,75
2023-08-08T19:28:09.097Z,75.2
2023-08-08T19:38:08.849Z,75.6
2023-08-08T19:48:08.983Z,76.2
2023-08-08T19:58:08.904Z,76.6
2023-08-08T20:08:08.825Z,77.4
2023-08-08T20:18:08.802Z,80
2023-08-08T20:28:08.655Z,83.8
2023-08-08T20:38:08.798Z,87.8
2023-08-08T20:48:08.720Z,88.6
2023-08-08T20:58:08.538Z,90.4
2023-08-08T21:08:08.649Z,94
2023-08-08T21:18:08.611Z,95
2023-08-08T21:28:08.444Z,95.2
2023-08-08T21:38:08.400Z,95.2
2023-08-08T21:48:08.467Z,95.2
2023-08-08T21:58:08.579Z,95.4
2023-08-08T22:08:08.399Z,95.6
2023-08-08T22:18:08.242Z,95.6
2023-08-08T22:28:08.535Z,95.8
2023-08-08T22:38:08.389Z,96
2023-08-08T22:48:08.132Z,96
2023-08-08T22:58:08.262Z,96.2
2023-08-08T23:08:08.159Z,96.2
2023-08-08T23:18:08.222Z,96.2
2023-08-08T23:28:08.293Z,96.4
2023-08-08T23:38:08.000Z,96.4
2023-08-08T23:48:08.117Z,96.4
2023-08-08T23:58:08.149Z,96.4
